Terminal Aerodrome Forecast
Issued by NWS Wakefield, VA

Home | Current Version | Previous Version | Text Only | Print | Product List | Glossary On
Versions: 1 2 3 4 5 6 7 8 9 10 11 12 13 14
348
FTUS41 KAKQ 282338
TAFSBY
TAF
KSBY 282338Z 2900/2924 08005KT P6SM SKC
     FM290600 00000KT 5SM BR SCT015
     FM290700 00000KT 2SM BR BKN009
     FM291300 04005KT P6SM SCT250
     FM291800 09007KT P6SM SCT250=

USA.gov is the U.S. government's official web portal to all federal, state and local government web resources and services.